sensor_id;sensor_type;location;lat;lon;timestamp;pressure;altitude;pressure_sealevel;temperature;humidity
29879;BME280;16752;53.364;-1.488;2022-08-25T00:00:45;100665.84;;;27.93;43.60
29879;BME280;16752;53.364;-1.488;2022-08-25T00:03:40;100670.22;;;27.94;43.66
29879;BME280;16752;53.364;-1.488;2022-08-25T00:06:17;100666.47;;;27.95;43.57
29879;BME280;16752;53.364;-1.488;2022-08-25T00:09:00;100673.94;;;27.93;43.25
29879;BME280;16752;53.364;-1.488;2022-08-25T00:11:57;100680.16;;;27.94;43.22
29879;BME280;16752;53.364;-1.488;2022-08-25T00:15:04;100687.44;;;28.00;43.42
29879;BME280;16752;53.364;-1.488;2022-08-25T00:17:52;100696.72;;;27.97;43.19
29879;BME280;16752;53.364;-1.488;2022-08-25T00:20:43;100694.47;;;28.01;43.05
29879;BME280;16752;53.364;-1.488;2022-08-25T00:23:20;100690.31;;;27.98;43.26
29879;BME280;16752;53.364;-1.488;2022-08-25T00:26:07;100686.97;;;27.96;43.14
29879;BME280;16752;53.364;-1.488;2022-08-25T00:29:01;100693.19;;;27.97;42.99
29879;BME280;16752;53.364;-1.488;2022-08-25T00:32:01;100683.25;;;27.97;43.23
29879;BME280;16752;53.364;-1.488;2022-08-25T00:48:26;100683.44;;;27.76;43.42
29879;BME280;16752;53.364;-1.488;2022-08-25T00:51:05;100681.78;;;27.75;43.52
29879;BME280;16752;53.364;-1.488;2022-08-25T00:53:45;100674.13;;;27.72;43.41
29879;BME280;16752;53.364;-1.488;2022-08-25T00:56:29;100673.91;;;27.67;43.31
29879;BME280;16752;53.364;-1.488;2022-08-25T00:59:38;100676.38;;;27.62;43.18
29879;BME280;16752;53.364;-1.488;2022-08-25T01:02:38;100675.34;;;27.56;42.79
29879;BME280;16752;53.364;-1.488;2022-08-25T01:08:55;100673.44;;;27.44;42.49
29879;BME280;16752;53.364;-1.488;2022-08-25T01:11:36;100667.84;;;27.38;42.26
29879;BME280;16752;53.364;-1.488;2022-08-25T01:58:34;100671.72;;;26.82;43.65
29879;BME280;16752;53.364;-1.488;2022-08-25T07:17:49;100670.84;;;26.74;40.31
29879;BME280;16752;53.364;-1.488;2022-08-25T07:20:16;100669.22;;;26.80;40.30
29879;BME280;16752;53.364;-1.488;2022-08-25T09:33:31;100742.78;;;25.80;42.25
29879;BME280;16752;53.364;-1.488;2022-08-25T09:36:26;100741.53;;;25.76;42.33
29879;BME280;16752;53.364;-1.488;2022-08-25T09:39:43;100737.38;;;25.74;42.94
29879;BME280;16752;53.364;-1.488;2022-08-25T09:42:09;100740.06;;;25.74;43.34
29879;BME280;16752;53.364;-1.488;2022-08-25T09:45:00;100733.66;;;25.75;43.88
29879;BME280;16752;53.364;-1.488;2022-08-25T09:47:26;100729.69;;;25.71;44.34
29879;BME280;16752;53.364;-1.488;2022-08-25T09:49:56;100730.34;;;25.73;44.71
29879;BME280;16752;53.364;-1.488;2022-08-25T09:54:50;100727.03;;;25.71;45.17
29879;BME280;16752;53.364;-1.488;2022-08-25T09:59:52;100717.41;;;25.62;45.05
29879;BME280;16752;53.364;-1.488;2022-08-25T10:06:06;100713.59;;;25.56;46.00
29879;BME280;16752;53.364;-1.488;2022-08-25T10:16:48;100698.00;;;25.59;45.95
29879;BME280;16752;53.364;-1.488;2022-08-25T10:19:32;100698.00;;;25.59;46.07
29879;BME280;16752;53.364;-1.488;2022-08-25T10:22:02;100698.00;;;25.59;45.36
29879;BME280;16752;53.364;-1.488;2022-08-25T10:38:41;100692.28;;;25.48;46.33
29879;BME280;16752;53.364;-1.488;2022-08-25T11:20:40;100654.63;;;26.27;45.45
29879;BME280;16752;53.364;-1.488;2022-08-25T11:23:39;100658.19;;;26.34;45.66
29879;BME280;16752;53.364;-1.488;2022-08-25T11:26:36;100660.88;;;26.34;45.25
29879;BME280;16752;53.364;-1.488;2022-08-25T11:32:19;100666.31;;;26.40;45.16
29879;BME280;16752;53.364;-1.488;2022-08-25T13:44:44;100723.00;;;26.80;45.33
29879;BME280;16752;53.364;-1.488;2022-08-25T13:47:47;100727.69;;;26.99;45.25
29879;BME280;16752;53.364;-1.488;2022-08-25T13:55:30;100722.91;;;27.49;44.33
29879;BME280;16752;53.364;-1.488;2022-08-25T13:57:58;100735.81;;;27.67;43.47
29879;BME280;16752;53.364;-1.488;2022-08-25T14:00:26;100737.31;;;27.83;44.13
29879;BME280;16752;53.364;-1.488;2022-08-25T14:02:52;100740.63;;;27.91;43.74
29879;BME280;16752;53.364;-1.488;2022-08-25T14:05:30;100737.94;;;27.85;40.88
29879;BME280;16752;53.364;-1.488;2022-08-25T14:07:58;100737.31;;;27.89;40.60
29879;BME280;16752;53.364;-1.488;2022-08-25T14:10:32;100724.50;;;27.98;42.62
29879;BME280;16752;53.364;-1.488;2022-08-25T14:13:14;100727.19;;;28.11;42.58
29879;BME280;16752;53.364;-1.488;2022-08-25T14:15:41;100735.47;;;28.16;42.07
29879;BME280;16752;53.364;-1.488;2022-08-25T14:20:35;100720.81;;;28.32;42.46
29879;BME280;16752;53.364;-1.488;2022-08-25T14:23:06;100691.56;;;28.22;41.95
29879;BME280;16752;53.364;-1.488;2022-08-25T14:25:32;100710.63;;;28.47;41.85
29879;BME280;16752;53.364;-1.488;2022-08-25T14:28:03;100712.50;;;28.53;41.27
29879;BME280;16752;53.364;-1.488;2022-08-25T14:30:35;100713.31;;;28.54;41.06
29879;BME280;16752;53.364;-1.488;2022-08-25T14:33:01;100717.66;;;28.61;39.95
29879;BME280;16752;53.364;-1.488;2022-08-25T14:35:28;100708.50;;;28.76;40.32
29879;BME280;16752;53.364;-1.488;2022-08-25T14:37:59;100708.88;;;28.99;40.02
29879;BME280;16752;53.364;-1.488;2022-08-25T14:40:27;100717.16;;;29.11;36.58
29879;BME280;16752;53.364;-1.488;2022-08-25T14:42:53;100717.56;;;29.08;37.11
29879;BME280;16752;53.364;-1.488;2022-08-25T14:45:32;100713.00;;;29.08;39.28
29879;BME280;16752;53.364;-1.488;2022-08-25T14:48:28;100713.09;;;29.27;39.25
29879;BME280;16752;53.364;-1.488;2022-08-25T14:55:11;100713.09;;;29.71;35.06
29879;BME280;16752;53.364;-1.488;2022-08-25T15:02:24;100703.53;;;29.75;32.66
29879;BME280;16752;53.364;-1.488;2022-08-25T15:05:18;100696.28;;;30.01;37.32
29879;BME280;16752;53.364;-1.488;2022-08-25T15:11:52;100697.88;;;30.15;38.20
29879;BME280;16752;53.364;-1.488;2022-08-25T15:14:20;100696.84;;;30.78;35.54
29879;BME280;16752;53.364;-1.488;2022-08-25T15:16:57;100695.72;;;31.22;33.44
29879;BME280;16752;53.364;-1.488;2022-08-25T15:20:04;100692.91;;;31.58;30.61
29879;BME280;16752;53.364;-1.488;2022-08-25T15:22:33;100694.72;;;32.18;33.19
29879;BME280;16752;53.364;-1.488;2022-08-25T15:24:59;100689.06;;;32.66;32.44
29879;BME280;16752;53.364;-1.488;2022-08-25T15:27:30;100689.47;;;33.38;32.88
29879;BME280;16752;53.364;-1.488;2022-08-25T15:29:57;100682.44;;;33.99;31.16
29879;BME280;16752;53.364;-1.488;2022-08-25T15:32:25;100686.59;;;34.57;31.27
29879;BME280;16752;53.364;-1.488;2022-08-25T15:34:51;100691.88;;;34.86;25.24
29879;BME280;16752;53.364;-1.488;2022-08-25T15:37:24;100685.09;;;35.59;26.61
29879;BME280;16752;53.364;-1.488;2022-08-25T15:39:50;100692.28;;;36.34;25.96
29879;BME280;16752;53.364;-1.488;2022-08-25T15:42:16;100691.88;;;37.15;25.67
29879;BME280;16752;53.364;-1.488;2022-08-25T15:44:42;100685.72;;;38.06;25.03
29879;BME280;16752;53.364;-1.488;2022-08-25T15:47:08;100691.63;;;38.74;23.37
29879;BME280;16752;53.364;-1.488;2022-08-25T15:49:34;100684.38;;;39.09;22.93
29879;BME280;16752;53.364;-1.488;2022-08-25T15:52:18;100682.56;;;39.33;22.61
29879;BME280;16752;53.364;-1.488;2022-08-25T15:58:22;100667.94;;;39.09;20.79
29879;BME280;16752;53.364;-1.488;2022-08-25T16:00:48;100675.31;;;37.73;20.84
29879;BME280;16752;53.364;-1.488;2022-08-25T16:03:13;100675.16;;;37.01;22.91
29879;BME280;16752;53.364;-1.488;2022-08-25T16:05:40;100672.78;;;36.63;24.46
29879;BME280;16752;53.364;-1.488;2022-08-25T16:08:14;100668.28;;;36.36;23.15
29879;BME280;16752;53.364;-1.488;2022-08-25T16:10:43;100670.38;;;37.34;22.21
29879;BME280;16752;53.364;-1.488;2022-08-25T16:13:09;100672.00;;;38.16;21.05
29879;BME280;16752;53.364;-1.488;2022-08-25T16:15:36;100663.78;;;38.37;22.81
29879;BME280;16752;53.364;-1.488;2022-08-25T16:18:03;100660.13;;;38.72;20.88
29879;BME280;16752;53.364;-1.488;2022-08-25T16:20:30;100667.97;;;38.19;21.45
29879;BME280;16752;53.364;-1.488;2022-08-25T16:22:56;100677.66;;;36.51;22.81
29879;BME280;16752;53.364;-1.488;2022-08-25T16:25:25;100674.56;;;34.53;25.28
29879;BME280;16752;53.364;-1.488;2022-08-25T16:27:50;100678.88;;;33.37;27.80
29879;BME280;16752;53.364;-1.488;2022-08-25T16:30:17;100675.75;;;32.30;30.55
29879;BME280;16752;53.364;-1.488;2022-08-25T16:32:43;100677.25;;;31.60;31.64
29879;BME280;16752;53.364;-1.488;2022-08-25T16:35:09;100680.22;;;31.11;32.38
29879;BME280;16752;53.364;-1.488;2022-08-25T16:37:35;100681.91;;;30.32;32.71
29879;BME280;16752;53.364;-1.488;2022-08-25T16:40:01;100674.53;;;29.89;33.29
29879;BME280;16752;53.364;-1.488;2022-08-25T16:42:26;100679.00;;;29.39;33.63
29879;BME280;16752;53.364;-1.488;2022-08-25T16:44:53;100674.25;;;28.96;34.92
29879;BME280;16752;53.364;-1.488;2022-08-25T16:47:19;100666.66;;;28.67;35.35
29879;BME280;16752;53.364;-1.488;2022-08-25T16:49:45;100673.28;;;28.57;35.87
29879;BME280;16752;53.364;-1.488;2022-08-25T16:52:12;100670.81;;;28.49;36.22
29879;BME280;16752;53.364;-1.488;2022-08-25T16:54:56;100672.06;;;28.40;36.86
29879;BME280;16752;53.364;-1.488;2022-08-25T16:57:38;100668.78;;;28.45;36.62
29879;BME280;16752;53.364;-1.488;2022-08-25T17:00:06;100668.16;;;28.36;37.01
29879;BME280;16752;53.364;-1.488;2022-08-25T17:02:32;100668.97;;;27.97;36.71
29879;BME280;16752;53.364;-1.488;2022-08-25T17:04:58;100667.50;;;27.94;36.88
29879;BME280;16752;53.364;-1.488;2022-08-25T17:07:25;100672.06;;;27.87;37.02
29879;BME280;16752;53.364;-1.488;2022-08-25T17:09:51;100664.63;;;27.83;37.40
29879;BME280;16752;53.364;-1.488;2022-08-25T17:12:17;100667.53;;;27.81;37.62
29879;BME280;16752;53.364;-1.488;2022-08-25T17:14:45;100667.69;;;27.73;38.67
29879;BME280;16752;53.364;-1.488;2022-08-25T17:17:13;100668.25;;;27.49;38.01
29879;BME280;16752;53.364;-1.488;2022-08-25T17:29:34;100654.13;;;27.20;39.19
29879;BME280;16752;53.364;-1.488;2022-08-25T18:32:33;100692.00;;;25.79;43.22
29879;BME280;16752;53.364;-1.488;2022-08-25T18:35:01;100695.25;;;25.74;43.23
29879;BME280;16752;53.364;-1.488;2022-08-25T18:37:27;100704.00;;;25.62;43.13
29879;BME280;16752;53.364;-1.488;2022-08-25T18:40:11;100697.72;;;25.54;42.94
29879;BME280;16752;53.364;-1.488;2022-08-25T18:42:54;100707.34;;;25.49;43.16
29879;BME280;16752;53.364;-1.488;2022-08-25T18:45:22;100705.19;;;25.38;43.17
29879;BME280;16752;53.364;-1.488;2022-08-25T18:47:49;100704.69;;;25.34;43.30
29879;BME280;16752;53.364;-1.488;2022-08-25T18:50:21;100703.81;;;25.27;43.47
29879;BME280;16752;53.364;-1.488;2022-08-25T18:52:47;100699.38;;;25.19;43.64
29879;BME280;16752;53.364;-1.488;2022-08-25T18:55:13;100703.16;;;25.10;43.63
29879;BME280;16752;53.364;-1.488;2022-08-25T18:57:39;100709.09;;;25.06;43.51
29879;BME280;16752;53.364;-1.488;2022-08-25T19:00:06;100710.84;;;24.98;43.65
29879;BME280;16752;53.364;-1.488;2022-08-25T19:02:32;100708.63;;;24.87;43.63
29879;BME280;16752;53.364;-1.488;2022-08-25T19:04:57;100716.75;;;24.79;43.69
29879;BME280;16752;53.364;-1.488;2022-08-25T19:07:24;100719.50;;;24.71;43.80
29879;BME280;16752;53.364;-1.488;2022-08-25T19:09:50;100720.25;;;24.65;43.70
29879;BME280;16752;53.364;-1.488;2022-08-25T19:12:15;100723.50;;;24.60;43.42
29879;BME280;16752;53.364;-1.488;2022-08-25T19:14:41;100727.09;;;24.53;43.78
29879;BME280;16752;53.364;-1.488;2022-08-25T19:17:07;100733.81;;;24.49;43.73
29879;BME280;16752;53.364;-1.488;2022-08-25T19:19:34;100735.56;;;24.42;43.58
29879;BME280;16752;53.364;-1.488;2022-08-25T19:21:59;100743.50;;;24.35;43.63
29879;BME280;16752;53.364;-1.488;2022-08-25T19:24:25;100738.69;;;24.30;43.53
29879;BME280;16752;53.364;-1.488;2022-08-25T19:26:51;100739.72;;;24.21;43.50
29879;BME280;16752;53.364;-1.488;2022-08-25T19:29:20;100746.44;;;24.17;43.39
29879;BME280;16752;53.364;-1.488;2022-08-25T19:31:47;100739.97;;;24.12;43.40
29879;BME280;16752;53.364;-1.488;2022-08-25T19:34:16;100747.03;;;24.04;43.40
29879;BME280;16752;53.364;-1.488;2022-08-25T19:36:43;100752.09;;;23.99;43.57
29879;BME280;16752;53.364;-1.488;2022-08-25T19:39:10;100749.97;;;23.95;43.54
29879;BME280;16752;53.364;-1.488;2022-08-25T19:41:36;100763.72;;;23.92;43.46
29879;BME280;16752;53.364;-1.488;2022-08-25T19:44:02;100760.56;;;23.88;43.59
29879;BME280;16752;53.364;-1.488;2022-08-25T19:46:32;100763.75;;;23.84;43.65
29879;BME280;16752;53.364;-1.488;2022-08-25T19:48:59;100766.13;;;23.78;43.63
29879;BME280;16752;53.364;-1.488;2022-08-25T19:51:25;100765.81;;;23.73;43.61
29879;BME280;16752;53.364;-1.488;2022-08-25T19:53:52;100772.91;;;23.66;43.58
29879;BME280;16752;53.364;-1.488;2022-08-25T19:56:17;100769.06;;;23.61;43.60
29879;BME280;16752;53.364;-1.488;2022-08-25T19:58:43;100766.38;;;23.61;43.77
29879;BME280;16752;53.364;-1.488;2022-08-25T20:01:09;100775.41;;;23.60;43.63
29879;BME280;16752;53.364;-1.488;2022-08-25T20:03:34;100776.94;;;23.54;43.77
29879;BME280;16752;53.364;-1.488;2022-08-25T20:06:00;100775.25;;;23.53;43.50
29879;BME280;16752;53.364;-1.488;2022-08-25T20:08:26;100775.78;;;23.48;43.74
29879;BME280;16752;53.364;-1.488;2022-08-25T20:10:53;100777.47;;;23.41;43.75
29879;BME280;16752;53.364;-1.488;2022-08-25T20:13:19;100779.00;;;23.36;43.76
29879;BME280;16752;53.364;-1.488;2022-08-25T20:15:45;100775.34;;;23.37;43.67
29879;BME280;16752;53.364;-1.488;2022-08-25T20:18:11;100775.03;;;23.32;43.49
29879;BME280;16752;53.364;-1.488;2022-08-25T20:20:37;100774.06;;;23.25;43.62
29879;BME280;16752;53.364;-1.488;2022-08-25T20:23:03;100772.56;;;23.22;43.37
29879;BME280;16752;53.364;-1.488;2022-08-25T20:25:47;100779.78;;;23.13;43.28
29879;BME280;16752;53.364;-1.488;2022-08-25T20:28:13;100782.44;;;23.13;43.21
29879;BME280;16752;53.364;-1.488;2022-08-25T20:30:38;100776.59;;;23.10;43.16
29879;BME280;16752;53.364;-1.488;2022-08-25T20:33:07;100782.78;;;23.10;43.39
29879;BME280;16752;53.364;-1.488;2022-08-25T20:35:34;100779.78;;;23.13;43.56
29879;BME280;16752;53.364;-1.488;2022-08-25T20:38:00;100783.44;;;23.12;43.32
29879;BME280;16752;53.364;-1.488;2022-08-25T20:40:26;100785.47;;;23.10;43.66
29879;BME280;16752;53.364;-1.488;2022-08-25T20:42:56;100783.13;;;23.07;43.56
29879;BME280;16752;53.364;-1.488;2022-08-25T20:45:23;100773.16;;;23.01;43.49
29879;BME280;16752;53.364;-1.488;2022-08-25T20:47:49;100778.81;;;22.98;43.45
29879;BME280;16752;53.364;-1.488;2022-08-25T20:50:15;100778.31;;;22.95;43.55
29879;BME280;16752;53.364;-1.488;2022-08-25T20:52:40;100787.81;;;22.97;43.69
29879;BME280;16752;53.364;-1.488;2022-08-25T20:55:06;100783.00;;;22.93;44.12
29879;BME280;16752;53.364;-1.488;2022-08-25T20:57:35;100789.22;;;22.85;43.88
29879;BME280;16752;53.364;-1.488;2022-08-25T21:00:01;100787.72;;;22.82;43.78
29879;BME280;16752;53.364;-1.488;2022-08-25T21:02:26;100779.50;;;22.68;43.80
29879;BME280;16752;53.364;-1.488;2022-08-25T21:04:53;100784.84;;;22.68;44.17
29879;BME280;16752;53.364;-1.488;2022-08-25T21:07:19;100778.19;;;22.64;44.20
29879;BME280;16752;53.364;-1.488;2022-08-25T21:09:46;100776.34;;;22.64;44.07
29879;BME280;16752;53.364;-1.488;2022-08-25T21:12:14;100782.38;;;22.58;44.09
29879;BME280;16752;53.364;-1.488;2022-08-25T21:14:43;100788.53;;;22.59;43.82
29879;BME280;16752;53.364;-1.488;2022-08-25T21:17:11;100789.72;;;22.56;43.64
29879;BME280;16752;53.364;-1.488;2022-08-25T21:19:41;100789.22;;;22.44;43.78
29879;BME280;16752;53.364;-1.488;2022-08-25T21:22:06;100784.53;;;22.46;43.63
29879;BME280;16752;53.364;-1.488;2022-08-25T21:24:32;100788.22;;;22.45;43.50
29879;BME280;16752;53.364;-1.488;2022-08-25T21:27:07;100789.19;;;22.52;43.22
29879;BME280;16752;53.364;-1.488;2022-08-25T21:29:33;100787.88;;;22.56;43.29
29879;BME280;16752;53.364;-1.488;2022-08-25T21:31:59;100783.69;;;22.54;43.16
29879;BME280;16752;53.364;-1.488;2022-08-25T21:34:27;100787.53;;;22.51;43.50
29879;BME280;16752;53.364;-1.488;2022-08-25T21:36:56;100790.53;;;22.48;43.49
29879;BME280;16752;53.364;-1.488;2022-08-25T21:39:22;100786.38;;;22.46;43.35
29879;BME280;16752;53.364;-1.488;2022-08-25T21:41:53;100787.72;;;22.42;43.54
29879;BME280;16752;53.364;-1.488;2022-08-25T21:44:19;100787.22;;;22.38;43.77
29879;BME280;16752;53.364;-1.488;2022-08-25T21:46:47;100779.19;;;22.30;43.57
29879;BME280;16752;53.364;-1.488;2022-08-25T21:49:14;100786.88;;;22.25;43.41
29879;BME280;16752;53.364;-1.488;2022-08-25T21:51:42;100791.72;;;22.21;43.18
29879;BME280;16752;53.364;-1.488;2022-08-25T21:54:10;100782.53;;;22.16;43.24
29879;BME280;16752;53.364;-1.488;2022-08-25T21:56:43;100781.19;;;22.12;43.08
29879;BME280;16752;53.364;-1.488;2022-08-25T21:59:17;100784.34;;;22.07;42.88
29879;BME280;16752;53.364;-1.488;2022-08-25T22:01:43;100780.84;;;22.07;43.04
29879;BME280;16752;53.364;-1.488;2022-08-25T22:04:11;100777.19;;;22.08;43.19
29879;BME280;16752;53.364;-1.488;2022-08-25T22:06:39;100783.34;;;22.08;43.52
29879;BME280;16752;53.364;-1.488;2022-08-25T22:09:06;100780.00;;;22.06;43.68
29879;BME280;16752;53.364;-1.488;2022-08-25T22:11:34;100781.84;;;22.06;43.58
29879;BME280;16752;53.364;-1.488;2022-08-25T22:14:01;100781.47;;;22.01;43.62
29879;BME280;16752;53.364;-1.488;2022-08-25T22:16:29;100778.47;;;21.95;43.67
29879;BME280;16752;53.364;-1.488;2022-08-25T22:18:58;100786.47;;;21.95;43.39
29879;BME280;16752;53.364;-1.488;2022-08-25T22:21:24;100784.81;;;21.94;43.79
29879;BME280;16752;53.364;-1.488;2022-08-25T22:23:53;100787.47;;;21.94;43.77
29879;BME280;16752;53.364;-1.488;2022-08-25T22:26:23;100783.78;;;21.87;43.44
29879;BME280;16752;53.364;-1.488;2022-08-25T22:28:49;100790.13;;;21.86;43.81
29879;BME280;16752;53.364;-1.488;2022-08-25T22:31:16;100790.28;;;21.85;43.49
29879;BME280;16752;53.364;-1.488;2022-08-25T22:33:47;100790.63;;;21.82;43.88
29879;BME280;16752;53.364;-1.488;2022-08-25T22:36:28;100787.13;;;21.81;43.91
29879;BME280;16752;53.364;-1.488;2022-08-25T22:38:57;100784.44;;;21.81;43.79
29879;BME280;16752;53.364;-1.488;2022-08-25T22:41:25;100787.13;;;21.81;43.90
29879;BME280;16752;53.364;-1.488;2022-08-25T22:43:52;100787.44;;;21.78;43.84
29879;BME280;16752;53.364;-1.488;2022-08-25T22:46:27;100790.44;;;21.75;43.60
29879;BME280;16752;53.364;-1.488;2022-08-25T22:49:01;100790.78;;;21.72;43.72
29879;BME280;16752;53.364;-1.488;2022-08-25T22:51:29;100793.75;;;21.69;43.89
29879;BME280;16752;53.364;-1.488;2022-08-25T22:53:59;100797.41;;;21.68;43.93
29879;BME280;16752;53.364;-1.488;2022-08-25T22:56:31;100805.72;;;21.65;43.70
29879;BME280;16752;53.364;-1.488;2022-08-25T22:59:03;100797.22;;;21.61;43.89
29879;BME280;16752;53.364;-1.488;2022-08-25T23:01:32;100802.72;;;21.60;43.99
29879;BME280;16752;53.364;-1.488;2022-08-25T23:04:02;100795.72;;;21.59;43.89
29879;BME280;16752;53.364;-1.488;2022-08-25T23:06:33;100802.38;;;21.55;43.79
29879;BME280;16752;53.364;-1.488;2022-08-25T23:09:07;100800.88;;;21.52;43.93
29879;BME280;16752;53.364;-1.488;2022-08-25T23:11:35;100799.53;;;21.48;43.80
29879;BME280;16752;53.364;-1.488;2022-08-25T23:14:07;100805.69;;;21.49;44.11
29879;BME280;16752;53.364;-1.488;2022-08-25T23:16:38;100804.16;;;21.46;44.10
29879;BME280;16752;53.364;-1.488;2022-08-25T23:19:06;100802.81;;;21.42;44.10
29879;BME280;16752;53.364;-1.488;2022-08-25T23:21:32;100806.97;;;21.37;43.73
29879;BME280;16752;53.364;-1.488;2022-08-25T23:24:20;100810.09;;;21.32;44.09
29879;BME280;16752;53.364;-1.488;2022-08-25T23:26:46;100813.25;;;21.27;44.07
29879;BME280;16752;53.364;-1.488;2022-08-25T23:29:16;100820.53;;;21.25;43.73
29879;BME280;16752;53.364;-1.488;2022-08-25T23:31:47;100818.31;;;21.21;43.98
29879;BME280;16752;53.364;-1.488;2022-08-25T23:34:18;100813.84;;;21.21;44.29
29879;BME280;16752;53.364;-1.488;2022-08-25T23:36:57;100813.47;;;21.16;43.99
29879;BME280;16752;53.364;-1.488;2022-08-25T23:39:32;100814.47;;;21.15;44.13
29879;BME280;16752;53.364;-1.488;2022-08-25T23:42:25;100824.13;;;21.16;44.09
29879;BME280;16752;53.364;-1.488;2022-08-25T23:51:04;100815.13;;;21.09;44.43
29879;BME280;16752;53.364;-1.488;2022-08-25T23:53:46;100811.78;;;21.07;44.27
29879;BME280;16752;53.364;-1.488;2022-08-25T23:59:57;100819.69;;;20.99;44.46
